sensor_id;sensor_type;location;lat;lon;timestamp;pressure;altitude;pressure_sealevel;temperature;humidity
46682;BME280;34101;53.430;-2.224;2022-12-07T00:00:17;153036.87;;;2.22;100.00
46682;BME280;34101;53.430;-2.224;2022-12-07T00:02:44;153034.46;;;2.21;100.00
46682;BME280;34101;53.430;-2.224;2022-12-07T00:05:11;153028.99;;;2.19;100.00
46682;BME280;34101;53.430;-2.224;2022-12-07T00:07:38;153025.70;;;2.17;100.00
46682;BME280;34101;53.430;-2.224;2022-12-07T00:10:06;153020.87;;;2.15;100.00
46682;BME280;34101;53.430;-2.224;2022-12-07T00:12:34;153012.91;;;2.12;100.00
46682;BME280;34101;53.430;-2.224;2022-12-07T00:15:02;152986.31;;;2.01;100.00
46682;BME280;34101;53.430;-2.224;2022-12-07T00:17:29;152954.48;;;1.88;100.00
46682;BME280;34101;53.430;-2.224;2022-12-07T00:19:56;152947.73;;;1.86;100.00
46682;BME280;34101;53.430;-2.224;2022-12-07T00:22:23;152938.32;;;1.82;100.00
46682;BME280;34101;53.430;-2.224;2022-12-07T00:24:51;152929.80;;;1.78;100.00
46682;BME280;34101;53.430;-2.224;2022-12-07T00:27:19;152928.03;;;1.78;100.00
46682;BME280;34101;53.430;-2.224;2022-12-07T00:29:46;152920.72;;;1.75;100.00
46682;BME280;34101;53.430;-2.224;2022-12-07T00:32:14;152922.49;;;1.75;100.00
46682;BME280;34101;53.430;-2.224;2022-12-07T00:34:42;152919.92;;;1.74;100.00
46682;BME280;34101;53.430;-2.224;2022-12-07T00:37:09;152918.39;;;1.74;100.00
46682;BME280;34101;53.430;-2.224;2022-12-07T00:39:36;152893.24;;;1.64;100.00
46682;BME280;34101;53.430;-2.224;2022-12-07T00:42:03;152879.01;;;1.58;100.00
46682;BME280;34101;53.430;-2.224;2022-12-07T00:44:30;152876.12;;;1.57;100.00
46682;BME280;34101;53.430;-2.224;2022-12-07T00:46:58;152884.40;;;1.60;100.00
46682;BME280;34101;53.430;-2.224;2022-12-07T00:49:25;152885.12;;;1.60;100.00
46682;BME280;34101;53.430;-2.224;2022-12-07T00:51:52;152893.40;;;1.64;100.00
46682;BME280;34101;53.430;-2.224;2022-12-07T00:54:19;152893.40;;;1.64;100.00
46682;BME280;34101;53.430;-2.224;2022-12-07T00:56:46;152890.83;;;1.63;100.00
46682;BME280;34101;53.430;-2.224;2022-12-07T00:59:14;152888.66;;;1.62;100.00
46682;BME280;34101;53.430;-2.224;2022-12-07T01:01:40;152891.31;;;1.63;100.00
46682;BME280;34101;53.430;-2.224;2022-12-07T01:04:08;152893.56;;;1.64;100.00
46682;BME280;34101;53.430;-2.224;2022-12-07T01:06:35;152889.86;;;1.62;100.00
46682;BME280;34101;53.430;-2.224;2022-12-07T01:09:03;152883.75;;;1.60;100.00
46682;BME280;34101;53.430;-2.224;2022-12-07T01:11:31;152881.26;;;1.59;100.00
46682;BME280;34101;53.430;-2.224;2022-12-07T01:13:59;152867.44;;;1.53;100.00
46682;BME280;34101;53.430;-2.224;2022-12-07T01:16:28;152849.60;;;1.46;100.00
46682;BME280;34101;53.430;-2.224;2022-12-07T01:18:57;152825.42;;;1.36;100.00
46682;BME280;34101;53.430;-2.224;2022-12-07T01:21:26;152810.88;;;1.30;100.00
46682;BME280;34101;53.430;-2.224;2022-12-07T01:23:53;152801.24;;;1.26;100.00
46682;BME280;34101;53.430;-2.224;2022-12-07T01:26:23;152820.84;;;1.34;100.00
46682;BME280;34101;53.430;-2.224;2022-12-07T01:28:51;152832.09;;;1.39;100.00
46682;BME280;34101;53.430;-2.224;2022-12-07T01:31:20;152856.51;;;1.49;100.00
46682;BME280;34101;53.430;-2.224;2022-12-07T01:33:49;152891.79;;;1.63;100.00
46682;BME280;34101;53.430;-2.224;2022-12-07T01:36:18;152919.03;;;1.74;100.00
46682;BME280;34101;53.430;-2.224;2022-12-07T01:38:48;152945.64;;;1.85;100.00
46682;BME280;34101;53.430;-2.224;2022-12-07T01:41:15;152966.61;;;1.93;100.00
46682;BME280;34101;53.430;-2.224;2022-12-07T01:44:11;152973.61;;;1.96;100.00
46682;BME280;34101;53.430;-2.224;2022-12-07T01:46:41;152994.99;;;2.05;100.00
46682;BME280;34101;53.430;-2.224;2022-12-07T01:49:12;153008.25;;;2.10;100.00
46682;BME280;34101;53.430;-2.224;2022-12-07T01:51:42;153016.85;;;2.14;100.00
46682;BME280;34101;53.430;-2.224;2022-12-07T01:54:11;153002.14;;;2.08;100.00
46682;BME280;34101;53.430;-2.224;2022-12-07T01:56:42;152980.52;;;1.99;100.00
46682;BME280;34101;53.430;-2.224;2022-12-07T01:59:12;152955.04;;;1.89;100.00
46682;BME280;34101;53.430;-2.224;2022-12-07T02:01:40;152940.09;;;1.83;100.00
46682;BME280;34101;53.430;-2.224;2022-12-07T02:04:08;152927.23;;;1.77;100.00
46682;BME280;34101;53.430;-2.224;2022-12-07T02:06:36;152915.74;;;1.73;100.00
46682;BME280;34101;53.430;-2.224;2022-12-07T02:09:04;152898.78;;;1.66;100.00
46682;BME280;34101;53.430;-2.224;2022-12-07T02:11:32;152875.32;;;1.56;100.00
46682;BME280;34101;53.430;-2.224;2022-12-07T02:13:59;152865.83;;;1.52;100.00
46682;BME280;34101;53.430;-2.224;2022-12-07T02:16:31;152859.17;;;1.50;100.00
46682;BME280;34101;53.430;-2.224;2022-12-07T02:20:28;152846.79;;;1.45;100.00
46682;BME280;34101;53.430;-2.224;2022-12-07T02:23:25;152823.49;;;1.35;100.00
46682;BME280;34101;53.430;-2.224;2022-12-07T02:26:31;152816.74;;;1.33;100.00
46682;BME280;34101;53.430;-2.224;2022-12-07T02:29:13;152803.33;;;1.27;100.00
46682;BME280;34101;53.430;-2.224;2022-12-07T02:31:46;152800.03;;;1.26;100.00
46682;BME280;34101;53.430;-2.224;2022-12-07T02:34:21;152790.71;;;1.22;100.00
46682;BME280;34101;53.430;-2.224;2022-12-07T02:36:54;152776.65;;;1.16;100.00
46682;BME280;34101;53.430;-2.224;2022-12-07T02:39:31;152761.71;;;1.10;100.00
46682;BME280;34101;53.430;-2.224;2022-12-07T02:42:05;152752.15;;;1.06;100.00
46682;BME280;34101;53.430;-2.224;2022-12-07T02:44:35;152747.17;;;1.04;100.00
46682;BME280;34101;53.430;-2.224;2022-12-07T02:47:05;152749.50;;;1.05;100.00
46682;BME280;34101;53.430;-2.224;2022-12-07T02:49:36;152747.09;;;1.04;100.00
46682;BME280;34101;53.430;-2.224;2022-12-07T02:52:05;152746.93;;;1.04;100.00
46682;BME280;34101;53.430;-2.224;2022-12-07T02:54:32;152744.36;;;1.03;100.00
46682;BME280;34101;53.430;-2.224;2022-12-07T02:57:06;152739.70;;;1.01;100.00
46682;BME280;34101;53.430;-2.224;2022-12-07T02:59:45;152733.12;;;0.99;100.00
46682;BME280;34101;53.430;-2.224;2022-12-07T03:02:21;152730.79;;;0.98;100.00
46682;BME280;34101;53.430;-2.224;2022-12-07T03:04:59;152728.30;;;0.97;100.00
46682;BME280;34101;53.430;-2.224;2022-12-07T03:07:37;152724.20;;;0.95;100.00
46682;BME280;34101;53.430;-2.224;2022-12-07T03:10:24;152704.68;;;0.87;100.00
46682;BME280;34101;53.430;-2.224;2022-12-07T03:13:00;152661.23;;;0.70;100.00
46682;BME280;34101;53.430;-2.224;2022-12-07T03:15:34;152645.74;;;0.63;100.00
46682;BME280;34101;53.430;-2.224;2022-12-07T03:18:04;152634.81;;;0.59;100.00
46682;BME280;34101;53.430;-2.224;2022-12-07T03:20:34;152624.70;;;0.55;100.00
46682;BME280;34101;53.430;-2.224;2022-12-07T03:23:05;152634.33;;;0.59;100.00
46682;BME280;34101;53.430;-2.224;2022-12-07T03:25:35;152649.19;;;0.65;100.00
46682;BME280;34101;53.430;-2.224;2022-12-07T03:28:06;152655.53;;;0.67;100.00
46682;BME280;34101;53.430;-2.224;2022-12-07T03:30:39;152657.06;;;0.68;100.00
46682;BME280;34101;53.430;-2.224;2022-12-07T03:33:12;152661.56;;;0.70;100.00
46682;BME280;34101;53.430;-2.224;2022-12-07T03:35:43;152664.61;;;0.71;100.00
46682;BME280;34101;53.430;-2.224;2022-12-07T03:38:17;152668.78;;;0.73;100.00
46682;BME280;34101;53.430;-2.224;2022-12-07T03:40:49;152668.30;;;0.72;100.00
46682;BME280;34101;53.430;-2.224;2022-12-07T03:43:20;152671.83;;;0.74;100.00
46682;BME280;34101;53.430;-2.224;2022-12-07T03:45:56;152670.95;;;0.73;100.00
46682;BME280;34101;53.430;-2.224;2022-12-07T03:48:33;152657.54;;;0.68;100.00
46682;BME280;34101;53.430;-2.224;2022-12-07T03:51:08;152662.28;;;0.70;100.00
46682;BME280;34101;53.430;-2.224;2022-12-07T03:53:42;152664.61;;;0.71;100.00
46682;BME280;34101;53.430;-2.224;2022-12-07T03:56:12;152663.56;;;0.70;100.00
46682;BME280;34101;53.430;-2.224;2022-12-07T03:58:40;152658.58;;;0.68;100.00
46682;BME280;34101;53.430;-2.224;2022-12-07T04:01:08;152654.49;;;0.67;100.00
46682;BME280;34101;53.430;-2.224;2022-12-07T04:03:35;152640.84;;;0.61;100.00
46682;BME280;34101;53.430;-2.224;2022-12-07T04:06:03;152635.62;;;0.59;100.00
46682;BME280;34101;53.430;-2.224;2022-12-07T04:08:30;152628.47;;;0.56;100.00
46682;BME280;34101;53.430;-2.224;2022-12-07T04:10:57;152622.93;;;0.54;100.00
46682;BME280;34101;53.430;-2.224;2022-12-07T04:13:25;152628.39;;;0.56;100.00
46682;BME280;34101;53.430;-2.224;2022-12-07T04:15:52;152625.82;;;0.55;100.00
46682;BME280;34101;53.430;-2.224;2022-12-07T04:18:19;152618.27;;;0.52;100.00
46682;BME280;34101;53.430;-2.224;2022-12-07T04:20:46;152615.54;;;0.51;100.00
46682;BME280;34101;53.430;-2.224;2022-12-07T04:23:14;152607.59;;;0.48;100.00
46682;BME280;34101;53.430;-2.224;2022-12-07T04:25:41;152602.05;;;0.46;100.00
46682;BME280;34101;53.430;-2.224;2022-12-07T04:28:08;152597.24;;;0.44;100.00
46682;BME280;34101;53.430;-2.224;2022-12-07T04:30:35;152596.19;;;0.43;100.00
46682;BME280;34101;53.430;-2.224;2022-12-07T04:33:03;152596.03;;;0.43;100.00
46682;BME280;34101;53.430;-2.224;2022-12-07T04:35:30;152599.40;;;0.44;100.00
46682;BME280;34101;53.430;-2.224;2022-12-07T04:37:58;152601.81;;;0.45;100.00
46682;BME280;34101;53.430;-2.224;2022-12-07T04:40:25;152600.69;;;0.45;100.00
46682;BME280;34101;53.430;-2.224;2022-12-07T04:42:52;152596.67;;;0.43;100.00
46682;BME280;34101;53.430;-2.224;2022-12-07T04:45:20;152586.80;;;0.39;100.00
46682;BME280;34101;53.430;-2.224;2022-12-07T04:47:47;152579.49;;;0.36;100.00
46682;BME280;34101;53.430;-2.224;2022-12-07T04:50:14;152582.14;;;0.37;100.00
46682;BME280;34101;53.430;-2.224;2022-12-07T04:52:42;152584.63;;;0.38;100.00
46682;BME280;34101;53.430;-2.224;2022-12-07T04:55:09;152580.38;;;0.37;100.00
46682;BME280;34101;53.430;-2.224;2022-12-07T04:57:36;152581.10;;;0.37;100.00
46682;BME280;34101;53.430;-2.224;2022-12-07T05:00:04;152577.89;;;0.36;100.00
46682;BME280;34101;53.430;-2.224;2022-12-07T05:02:31;152566.97;;;0.31;100.00
46682;BME280;34101;53.430;-2.224;2022-12-07T05:04:59;152541.36;;;0.21;100.00
46682;BME280;34101;53.430;-2.224;2022-12-07T05:07:26;152536.14;;;0.19;100.00
46682;BME280;34101;53.430;-2.224;2022-12-07T05:09:53;152524.10;;;0.14;100.00
46682;BME280;34101;53.430;-2.224;2022-12-07T05:12:20;152521.37;;;0.13;100.00
46682;BME280;34101;53.430;-2.224;2022-12-07T05:14:48;152522.25;;;0.13;100.00
46682;BME280;34101;53.430;-2.224;2022-12-07T05:17:15;152517.03;;;0.11;100.00
46682;BME280;34101;53.430;-2.224;2022-12-07T05:19:42;152509.01;;;0.08;100.00
46682;BME280;34101;53.430;-2.224;2022-12-07T05:22:09;152508.53;;;0.08;100.00
46682;BME280;34101;53.430;-2.224;2022-12-07T05:24:35;152511.09;;;0.09;100.00
46682;BME280;34101;53.430;-2.224;2022-12-07T05:27:03;152508.93;;;0.08;100.00
46682;BME280;34101;53.430;-2.224;2022-12-07T05:29:30;152516.63;;;0.11;100.00
46682;BME280;34101;53.430;-2.224;2022-12-07T05:31:57;152511.01;;;0.09;100.00
46682;BME280;34101;53.430;-2.224;2022-12-07T05:34:25;152503.79;;;0.06;100.00
46682;BME280;34101;53.430;-2.224;2022-12-07T05:36:52;152496.00;;;0.03;100.00
46682;BME280;34101;53.430;-2.224;2022-12-07T05:39:20;152485.25;;;-0.02;100.00
46682;BME280;34101;53.430;-2.224;2022-12-07T05:41:47;152477.22;;;-0.05;100.00
46682;BME280;34101;53.430;-2.224;2022-12-07T05:44:14;152471.93;;;-0.07;100.00
46682;BME280;34101;53.430;-2.224;2022-12-07T05:46:41;152470.80;;;-0.08;100.00
46682;BME280;34101;53.430;-2.224;2022-12-07T05:49:08;152472.57;;;-0.07;100.00
46682;BME280;34101;53.430;-2.224;2022-12-07T05:51:35;152465.50;;;-0.10;100.00
46682;BME280;34101;53.430;-2.224;2022-12-07T05:54:03;152472.49;;;-0.07;100.00
46682;BME280;34101;53.430;-2.224;2022-12-07T05:56:31;152482.52;;;-0.03;100.00
46682;BME280;34101;53.430;-2.224;2022-12-07T05:58:58;152481.72;;;-0.03;100.00
46682;BME280;34101;53.430;-2.224;2022-12-07T06:01:25;152486.21;;;-0.01;100.00
46682;BME280;34101;53.430;-2.224;2022-12-07T06:03:52;152483.08;;;-0.03;100.00
46682;BME280;34101;53.430;-2.224;2022-12-07T06:06:19;152487.74;;;-0.01;100.00
46682;BME280;34101;53.430;-2.224;2022-12-07T06:08:46;152502.75;;;0.05;100.00
46682;BME280;34101;53.430;-2.224;2022-12-07T06:11:13;152516.07;;;0.11;100.00
46682;BME280;34101;53.430;-2.224;2022-12-07T06:13:40;152537.99;;;0.20;100.00
46682;BME280;34101;53.430;-2.224;2022-12-07T06:16:07;152545.93;;;0.23;100.00
46682;BME280;34101;53.430;-2.224;2022-12-07T06:18:34;152559.74;;;0.28;100.00
46682;BME280;34101;53.430;-2.224;2022-12-07T06:21:03;152565.92;;;0.31;100.00
46682;BME280;34101;53.430;-2.224;2022-12-07T06:23:30;152577.24;;;0.35;100.00
46682;BME280;34101;53.430;-2.224;2022-12-07T06:25:57;152581.98;;;0.37;100.00
46682;BME280;34101;53.430;-2.224;2022-12-07T06:28:25;152585.19;;;0.39;100.00
46682;BME280;34101;53.430;-2.224;2022-12-07T06:30:57;152553.24;;;0.26;100.00
46682;BME280;34101;53.430;-2.224;2022-12-07T06:33:24;152570.82;;;0.33;100.00
46682;BME280;34101;53.430;-2.224;2022-12-07T06:35:51;152575.96;;;0.35;100.00
46682;BME280;34101;53.430;-2.224;2022-12-07T06:38:19;152582.54;;;0.38;100.00
46682;BME280;34101;53.430;-2.224;2022-12-07T06:40:46;152590.33;;;0.41;100.00
46682;BME280;34101;53.430;-2.224;2022-12-07T06:43:13;152591.54;;;0.41;100.00
46682;BME280;34101;53.430;-2.224;2022-12-07T06:45:41;152590.41;;;0.41;100.00
46682;BME280;34101;53.430;-2.224;2022-12-07T06:48:09;152589.85;;;0.41;100.00
46682;BME280;34101;53.430;-2.224;2022-12-07T06:50:36;152582.54;;;0.38;100.00
46682;BME280;34101;53.430;-2.224;2022-12-07T06:53:04;152577.08;;;0.35;100.00
46682;BME280;34101;53.430;-2.224;2022-12-07T06:55:31;152579.09;;;0.36;100.00
46682;BME280;34101;53.430;-2.224;2022-12-07T06:57:58;152560.79;;;0.29;100.00
46682;BME280;34101;53.430;-2.224;2022-12-07T07:00:26;152549.55;;;0.24;100.00
46682;BME280;34101;53.430;-2.224;2022-12-07T07:02:54;152531.81;;;0.17;100.00
46682;BME280;34101;53.430;-2.224;2022-12-07T07:05:21;152516.71;;;0.11;100.00
46682;BME280;34101;53.430;-2.224;2022-12-07T07:07:48;152506.92;;;0.07;100.00
46682;BME280;34101;53.430;-2.224;2022-12-07T07:10:16;152512.54;;;0.09;100.00
46682;BME280;34101;53.430;-2.224;2022-12-07T07:12:43;152504.83;;;0.06;100.00
46682;BME280;34101;53.430;-2.224;2022-12-07T07:15:11;152499.78;;;0.04;100.00
46682;BME280;34101;53.430;-2.224;2022-12-07T07:17:38;152486.93;;;-0.01;100.00
46682;BME280;34101;53.430;-2.224;2022-12-07T07:20:06;152478.67;;;-0.04;100.00
46682;BME280;34101;53.430;-2.224;2022-12-07T07:22:33;152490.95;;;0.00;100.00
46682;BME280;34101;53.430;-2.224;2022-12-07T07:25:02;152508.77;;;0.08;100.00
46682;BME280;34101;53.430;-2.224;2022-12-07T07:27:29;152529.24;;;0.16;100.00
46682;BME280;34101;53.430;-2.224;2022-12-07T07:29:57;152560.63;;;0.29;100.00
46682;BME280;34101;53.430;-2.224;2022-12-07T07:32:24;152591.54;;;0.41;100.00
46682;BME280;34101;53.430;-2.224;2022-12-07T07:34:51;152619.32;;;0.53;100.00
46682;BME280;34101;53.430;-2.224;2022-12-07T07:37:19;152632.24;;;0.58;100.00
46682;BME280;34101;53.430;-2.224;2022-12-07T07:39:47;152611.29;;;0.49;100.00
46682;BME280;34101;53.430;-2.224;2022-12-07T07:42:14;152615.62;;;0.51;100.00
46682;BME280;34101;53.430;-2.224;2022-12-07T07:44:41;152630.24;;;0.57;100.00
46682;BME280;34101;53.430;-2.224;2022-12-07T07:47:08;152625.90;;;0.55;100.00
46682;BME280;34101;53.430;-2.224;2022-12-07T07:49:36;152609.68;;;0.49;100.00
46682;BME280;34101;53.430;-2.224;2022-12-07T07:52:05;152605.75;;;0.47;100.00
46682;BME280;34101;53.430;-2.224;2022-12-07T07:54:33;152613.70;;;0.50;100.00
46682;BME280;34101;53.430;-2.224;2022-12-07T07:57:01;152617.71;;;0.52;100.00
46682;BME280;34101;53.430;-2.224;2022-12-07T07:59:27;152630.80;;;0.57;100.00
46682;BME280;34101;53.430;-2.224;2022-12-07T08:01:54;152642.92;;;0.62;100.00
46682;BME280;34101;53.430;-2.224;2022-12-07T08:04:22;152656.74;;;0.68;100.00
46682;BME280;34101;53.430;-2.224;2022-12-07T08:06:49;152665.17;;;0.71;100.00
46682;BME280;34101;53.430;-2.224;2022-12-07T08:09:16;152656.26;;;0.68;100.00
46682;BME280;34101;53.430;-2.224;2022-12-07T08:11:43;152659.07;;;0.69;100.00
46682;BME280;34101;53.430;-2.224;2022-12-07T08:14:11;152657.62;;;0.68;100.00
46682;BME280;34101;53.430;-2.224;2022-12-07T08:16:38;152654.97;;;0.67;100.00
46682;BME280;34101;53.430;-2.224;2022-12-07T08:19:06;152653.85;;;0.67;100.00
46682;BME280;34101;53.430;-2.224;2022-12-07T08:21:33;152648.14;;;0.64;100.00
46682;BME280;34101;53.430;-2.224;2022-12-07T08:24:02;152637.38;;;0.60;100.00
46682;BME280;34101;53.430;-2.224;2022-12-07T08:26:29;152621.48;;;0.53;100.00
46682;BME280;34101;53.430;-2.224;2022-12-07T08:28:57;152612.89;;;0.50;100.00
46682;BME280;34101;53.430;-2.224;2022-12-07T08:31:24;152607.03;;;0.48;100.00
46682;BME280;34101;53.430;-2.224;2022-12-07T08:33:51;152605.75;;;0.47;100.00
46682;BME280;34101;53.430;-2.224;2022-12-07T08:36:18;152612.01;;;0.50;100.00
46682;BME280;34101;53.430;-2.224;2022-12-07T08:38:45;152601.73;;;0.45;100.00
46682;BME280;34101;53.430;-2.224;2022-12-07T08:41:12;152595.39;;;0.43;100.00
46682;BME280;34101;53.430;-2.224;2022-12-07T08:43:40;152584.71;;;0.39;100.00
46682;BME280;34101;53.430;-2.224;2022-12-07T08:46:10;152554.12;;;0.26;100.00
46682;BME280;34101;53.430;-2.224;2022-12-07T08:48:43;152571.62;;;0.33;100.00
46682;BME280;34101;53.430;-2.224;2022-12-07T08:51:13;152571.95;;;0.33;100.00
46682;BME280;34101;53.430;-2.224;2022-12-07T08:53:41;152580.78;;;0.37;100.00
46682;BME280;34101;53.430;-2.224;2022-12-07T08:56:09;152594.67;;;0.43;100.00
46682;BME280;34101;53.430;-2.224;2022-12-07T08:58:37;152616.83;;;0.52;100.00
46682;BME280;34101;53.430;-2.224;2022-12-07T09:01:06;152657.94;;;0.68;100.00
46682;BME280;34101;53.430;-2.224;2022-12-07T09:03:33;152690.39;;;0.81;100.00
46682;BME280;34101;53.430;-2.224;2022-12-07T09:06:01;152725.48;;;0.96;100.00
46682;BME280;34101;53.430;-2.224;2022-12-07T09:08:33;152796.66;;;1.24;100.00
46682;BME280;34101;53.430;-2.224;2022-12-07T09:11:02;152819.47;;;1.34;100.00
46682;BME280;34101;53.430;-2.224;2022-12-07T09:13:29;152793.52;;;1.23;100.00
46682;BME280;34101;53.430;-2.224;2022-12-07T09:15:56;152734.40;;;0.99;100.00
46682;BME280;34101;53.430;-2.224;2022-12-07T09:18:23;152741.87;;;1.02;100.00
46682;BME280;34101;53.430;-2.224;2022-12-07T09:20:51;152874.11;;;1.56;100.00
46682;BME280;34101;53.430;-2.224;2022-12-07T09:23:18;153061.31;;;2.32;100.00
46682;BME280;34101;53.430;-2.224;2022-12-07T09:25:45;153232.20;;;3.01;100.00
46682;BME280;34101;53.430;-2.224;2022-12-07T09:28:12;153379.44;;;3.60;100.00
46682;BME280;34101;53.430;-2.224;2022-12-07T09:30:45;153488.01;;;4.04;100.00
46682;BME280;34101;53.430;-2.224;2022-12-07T09:33:13;153596.13;;;4.48;100.00
46682;BME280;34101;53.430;-2.224;2022-12-07T09:35:44;153701.87;;;4.91;100.00
46682;BME280;34101;53.430;-2.224;2022-12-07T09:38:12;153803.70;;;5.32;100.00
46682;BME280;34101;53.430;-2.224;2022-12-07T09:40:39;153894.27;;;5.69;100.00
46682;BME280;34101;53.430;-2.224;2022-12-07T09:43:12;153983.33;;;6.05;100.00
46682;BME280;34101;53.430;-2.224;2022-12-07T09:45:40;154059.51;;;6.35;100.00
46682;BME280;34101;53.430;-2.224;2022-12-07T09:48:16;154120.71;;;6.60;100.00
46682;BME280;34101;53.430;-2.224;2022-12-07T09:50:43;154153.69;;;6.73;100.00
46682;BME280;34101;53.430;-2.224;2022-12-07T09:53:15;154182.48;;;6.85;100.00
46682;BME280;34101;53.430;-2.224;2022-12-07T09:55:45;154211.51;;;6.97;100.00
46682;BME280;34101;53.430;-2.224;2022-12-07T09:58:17;154202.48;;;6.93;100.00
46682;BME280;34101;53.430;-2.224;2022-12-07T10:00:46;154243.78;;;7.10;100.00
46682;BME280;34101;53.430;-2.224;2022-12-07T10:03:14;154301.86;;;7.33;100.00
46682;BME280;34101;53.430;-2.224;2022-12-07T10:05:43;154344.14;;;7.50;100.00
46682;BME280;34101;53.430;-2.224;2022-12-07T10:08:13;154378.19;;;7.64;100.00
46682;BME280;34101;53.430;-2.224;2022-12-07T10:10:41;154420.07;;;7.81;100.00
46682;BME280;34101;53.430;-2.224;2022-12-07T10:13:10;154437.58;;;7.88;95.56
46682;BME280;34101;53.430;-2.224;2022-12-07T10:15:43;154455.90;;;7.95;94.19
46682;BME280;34101;53.430;-2.224;2022-12-07T10:18:21;154483.50;;;8.07;88.12
46682;BME280;34101;53.430;-2.224;2022-12-07T10:20:48;154515.31;;;8.19;84.82
46682;BME280;34101;53.430;-2.224;2022-12-07T10:23:17;154530.89;;;8.26;85.24
46682;BME280;34101;53.430;-2.224;2022-12-07T10:25:45;154539.12;;;8.29;83.07
46682;BME280;34101;53.430;-2.224;2022-12-07T10:28:15;154495.85;;;8.12;84.52
46682;BME280;34101;53.430;-2.224;2022-12-07T10:30:53;154495.21;;;8.11;85.72
46682;BME280;34101;53.430;-2.224;2022-12-07T10:33:49;154452.91;;;7.94;80.57
46682;BME280;34101;53.430;-2.224;2022-12-07T10:36:20;154436.05;;;7.87;85.86
46682;BME280;34101;53.430;-2.224;2022-12-07T10:38:50;154449.77;;;7.93;85.34
46682;BME280;34101;53.430;-2.224;2022-12-07T10:41:17;154492.54;;;8.10;85.80
46682;BME280;34101;53.430;-2.224;2022-12-07T10:43:51;154485.20;;;8.07;84.47
46682;BME280;34101;53.430;-2.224;2022-12-07T10:46:40;154313.32;;;7.38;83.66
46682;BME280;34101;53.430;-2.224;2022-12-07T10:49:29;154376.57;;;7.63;88.52
46682;BME280;34101;53.430;-2.224;2022-12-07T10:52:05;154434.68;;;7.87;84.22
46682;BME280;34101;53.430;-2.224;2022-12-07T10:54:42;154443.63;;;7.90;84.03
46682;BME280;34101;53.430;-2.224;2022-12-07T10:57:22;154479.15;;;8.05;81.66
46682;BME280;34101;53.430;-2.224;2022-12-07T11:00:04;154509.50;;;8.17;84.18
46682;BME280;34101;53.430;-2.224;2022-12-07T11:02:47;154549.78;;;8.33;80.09
46682;BME280;34101;53.430;-2.224;2022-12-07T11:05:25;154466.15;;;8.00;80.92
46682;BME280;34101;53.430;-2.224;2022-12-07T11:08:01;154507.80;;;8.16;83.06
46682;BME280;34101;53.430;-2.224;2022-12-07T11:10:38;154415.06;;;7.79;81.96
46682;BME280;34101;53.430;-2.224;2022-12-07T11:13:18;154394.73;;;7.71;83.65
46682;BME280;34101;53.430;-2.224;2022-12-07T11:16:00;154336.63;;;7.47;88.01
46682;BME280;34101;53.430;-2.224;2022-12-07T11:18:35;154376.49;;;7.63;81.67
46682;BME280;34101;53.430;-2.224;2022-12-07T11:21:12;154205.87;;;6.94;84.87
46682;BME280;34101;53.430;-2.224;2022-12-07T11:23:48;154294.60;;;7.30;84.16
46682;BME280;34101;53.430;-2.224;2022-12-07T11:26:58;154171.91;;;6.81;88.37
46682;BME280;34101;53.430;-2.224;2022-12-07T11:29:47;154031.37;;;6.24;91.87
46682;BME280;34101;53.430;-2.224;2022-12-07T11:32:22;154068.62;;;6.39;93.06
46682;BME280;34101;53.430;-2.224;2022-12-07T11:35:05;154072.65;;;6.41;94.27
46682;BME280;34101;53.430;-2.224;2022-12-07T11:37:37;154103.77;;;6.53;91.98
46682;BME280;34101;53.430;-2.224;2022-12-07T11:40:11;154183.77;;;6.86;91.09
46682;BME280;34101;53.430;-2.224;2022-12-07T11:42:46;154261.52;;;7.17;88.34
46682;BME280;34101;53.430;-2.224;2022-12-07T11:45:22;154326.14;;;7.43;87.99
46682;BME280;34101;53.430;-2.224;2022-12-07T11:47:54;154394.41;;;7.71;85.59
46682;BME280;34101;53.430;-2.224;2022-12-07T11:50:56;154450.17;;;7.93;83.08
46682;BME280;34101;53.430;-2.224;2022-12-07T11:53:48;154480.44;;;8.05;83.53
46682;BME280;34101;53.430;-2.224;2022-12-07T11:56:28;154505.38;;;8.15;82.32
46682;BME280;34101;53.430;-2.224;2022-12-07T11:58:59;154473.66;;;8.03;78.74
46682;BME280;34101;53.430;-2.224;2022-12-07T12:01:40;154388.92;;;7.68;86.18
46682;BME280;34101;53.430;-2.224;2022-12-07T12:04:21;154389.89;;;7.69;85.19
46682;BME280;34101;53.430;-2.224;2022-12-07T12:06:51;154390.37;;;7.69;84.30
46682;BME280;34101;53.430;-2.224;2022-12-07T12:09:22;154320.33;;;7.41;84.05
46682;BME280;34101;53.430;-2.224;2022-12-07T12:12:07;154308.80;;;7.36;84.75
46682;BME280;34101;53.430;-2.224;2022-12-07T12:14:46;154299.12;;;7.32;84.70
46682;BME280;34101;53.430;-2.224;2022-12-07T12:17:37;154245.71;;;7.11;86.65
46682;BME280;34101;53.430;-2.224;2022-12-07T12:20:19;154168.20;;;6.79;87.54
46682;BME280;34101;53.430;-2.224;2022-12-07T12:22:52;154175.22;;;6.82;88.46
46682;BME280;34101;53.430;-2.224;2022-12-07T12:25:22;154170.62;;;6.80;86.35
46682;BME280;34101;53.430;-2.224;2022-12-07T12:27:52;154178.85;;;6.84;87.50
46682;BME280;34101;53.430;-2.224;2022-12-07T12:30:30;154146.67;;;6.71;89.86
46682;BME280;34101;53.430;-2.224;2022-12-07T12:33:04;154053.06;;;6.33;92.59
46682;BME280;34101;53.430;-2.224;2022-12-07T12:35:35;154053.78;;;6.33;90.19
46682;BME280;34101;53.430;-2.224;2022-12-07T12:38:27;154036.13;;;6.26;92.97
46682;BME280;34101;53.430;-2.224;2022-12-07T12:40:55;154060.15;;;6.36;91.28
46682;BME280;34101;53.430;-2.224;2022-12-07T12:43:55;154083.94;;;6.45;92.86
46682;BME280;34101;53.430;-2.224;2022-12-07T12:46:48;154096.84;;;6.50;94.48
46682;BME280;34101;53.430;-2.224;2022-12-07T12:49:38;154077.24;;;6.43;94.70
46682;BME280;34101;53.430;-2.224;2022-12-07T12:54:21;154140.95;;;6.68;91.34
46682;BME280;34101;53.430;-2.224;2022-12-07T12:56:51;154114.33;;;6.58;91.89
46682;BME280;34101;53.430;-2.224;2022-12-07T12:59:25;154077.65;;;6.43;94.95
46682;BME280;34101;53.430;-2.224;2022-12-07T13:01:56;154032.50;;;6.24;95.85